NCAR-RAP Real-Time Weather Data

Output produced by METARs form (10 April 2020  07:27 UTC)
found at http://weather.rap.ucar.edu/surface/
 
KFAT 100653Z 00000KT 10SM BKN200 11/07 A3007 RMK AO2 SLP181 T01110072
KFAT 100553Z 00000KT 10SM BKN200 12/07 A3006 RMK AO2 SLP179 T01220072 10161 20122 50005
KFAT 100453Z 19004KT 10SM BKN200 13/07 A3007 RMK AO2 SLP182 T01330067
KFAT 100353Z 11005KT 10SM SCT120 BKN200 13/07 A3006 RMK AO2 SLP177 T01330072
KFAT 100253Z 13005KT 10SM FEW040 SCT120 BKN200 13/07 A3005 RMK AO2 SLP174 T01330072 51004
KFAT 100153Z 16006KT 10SM FEW040 SCT120 BKN200 15/06 A3005 RMK AO2 SLP174 T01500061
KFAT 100053Z 16009KT 10SM SCT040 SCT150 16/06 A3004 RMK AO2 SLP172 T01560061
KFAT 092353Z 14007KT 10SM SCT025 SCT040 SCT150 16/07 A3004 RMK AO2 SLP170 T01610072 10161 20133 56011
KFAT 092253Z 14007KT 10SM SCT030 BKN050 16/07 A3005 RMK AO2 SLP175 T01560067
KFAT 092153Z 14009G19KT 10SM BKN033 BKN043 OVC120 15/07 A3005 RMK AO2 SLP175 T01500072
KFAT 092053Z 18013KT 10SM BKN031 15/08 A3007 RMK AO2 SLP181 T01500078 58007
KFAT 092008Z 15007KT 10SM SCT025 BKN031 14/07 A3008 RMK AO2 T01390072
KFAT 091953Z 13011KT 10SM BKN025 BKN032 14/07 A3008 RMK AO2 SLP186 CLDS TPG MTNS DSNT E T01390072
KFAT 091911Z 14014KT 10SM BKN027 BKN033 14/07 A3009 RMK AO2 T01390072
KFAT 091853Z 13013KT 10SM SCT025 BKN033 14/08 A3009 RMK AO2 SLP187 CLDS TPG MTNS DSNT N-E-S T01390078
KFAT 091753Z 13015KT 10SM SCT017 BKN060 14/07 A3009 RMK AO2 SLP189 CLDS TPG MTNS DSNT N-E-S 60006 T01390072 10139 20094 50005
KFAT 091653Z 11013KT 10SM SCT013 BKN043 BKN055 12/08 A3010 RMK AO2 SLP191 CLDS TPG MTNS DSNT E T01170078
KFAT 091607Z 13013KT 10SM SCT023 OVC050 11/08 A3009 RMK AO2 T01110078
KFAT 091553Z 12009KT 10SM BKN023 OVC050 11/08 A3009 RMK AO2 SLP187 CLDS TPG MTNS DSNT N-E-S T01060078
KFAT 091510Z 12010KT 10SM BKN022 OVC100 10/07 A3009 RMK AO2 T01000072
KFAT 091500Z 12008KT 10SM SCT022 OVC100 10/07 A3008 RMK AO2 T01000072
KFAT 091453Z 12011KT 10SM BKN024 OVC095 09/07 A3008 RMK AO2 RAB1354E20 SLP185 MTNS OBSC DSNT N-E-S P0001 60006 T00940072 53014
KFAT 091353Z 10010KT 10SM BKN013 BKN034 OVC044 09/08 A3006 RMK AO2 RAE50 SLP180 P0001 T00940078
KFAT 091317Z 11010KT 10SM -RA BKN011 BKN015 OVC025 09/08 A3006 RMK AO2 P0001 T00940078
KFAT 091253Z 11011KT 9SM -RA BKN007 BKN018 OVC022 09/08 A3005 RMK AO2 SLP175 P0004 T00940078
KFAT 091153Z 11010KT 3SM RA BR BKN007 OVC011 09/08 A3004 RMK AO2 SFC VIS 5 SLP170 P0012 60027 70028 T00940078 10100 20094 53006
KFAT 091053Z 11010KT 3SM -RA BKN007 OVC011 10/08 A3002 RMK AO2 SFC VIS 8 SLP166 P0005 T01000078